Accueil
METAR-TAF:

METAR-TAF

Aéroports :

Cassel, Allemagne

latitude: 51-24N, longitude: 009-23E, altitude: 277 m

Observation

Le bulletin a été fait il y a 22 minutes, à 15:20 UTC
Vent 10 kt de sud
Température 6°C
Humidité 87%
Pression 1006 hPa
Visibilité 10 km ou plus
Quelques nuages à une hauteur de 1200 ft
Nuages fragmentés à une hauteur de 1700 ft

METAR: EDVK 271520Z 18010KT 9999 FEW012 BKN017 06/04 Q1006

Heure: 16:42 (15:42 UTC)

Prévision

Le bulletin a été fait il y a 1 heure et 42 minutes, à 14:00 UTC
Prévision valable du 27 à 15 UTC au 27 à 24 UTC
Vent 11 kt de sud
Visibilité 10 km ou plus
Nuages fragmentés à une hauteur de 1500 ft
Temporairement
du 27 à 15 UTC au 27 à 24 UTC
Vent 15 kt de sud/sud-ouest avec des rafales jusqu'à 25 kt
Visibilité: 3000 m
Nuages fragmentés à une hauteur de 600 ft
pluie, bruine

TAF: EDVK 271400Z 2715/2724 18011KT 9999 BKN015 TEMPO 2715/2724 21015G25KT 3000 RADZ BKN006

Observations et prévisions météorologiques de plus de 4000 aéroports (messages METAR et TAF).

Les stations disponibles sont représentées par des disques jaunes et rouges sur la carte.

Passer la souris dessus pour voir le nom de la station.

Cliquer dessus pour voir les observations et prévisions météorologiques.

Pour changer de carte: cliquez sur les boutons verts avec une croix noire pour zoomer, sur le bouton vert avec un tiret pour effectuer un zoom arrière, ou sur les flèches vertes pour les cartes adjacentes.


METAR-TAF: